Time;durP1;ratioP1;P1;durP2;ratioP2;P2;SDS_P1;SDS_P2;PMS_P1;PMS_P2;Temp;Humidity;BMP_temperature;BMP_pressure;BME280_temperature;BME280_humidity;BME280_pressure;Samples;Min_cycle;Max_cycle;Signal;HPM_P1;HPM_P2
2021/10/29 00:02:01;;;;;;;;;;;;;;;;;;5129030;28;19922;-73
2021/10/29 00:04:26;;;;;;;;;;;;;;;;;;5135539;28;19911;-73
2021/10/29 00:06:51;;;;;;;;;;;;;;;;;;5135240;27;19907;-73
2021/10/29 00:09:16;;;;;;;;;;;;;;;;;;5134977;28;19908;-73
2021/10/29 00:11:41;;;;;;;;;;;;;;;;;;5135531;28;19904;-73
2021/10/29 00:14:07;;;;;;;;;;;;;;;;;;5135694;27;19908;-73
2021/10/29 00:16:32;;;;;;;;;;;;;;;;;;5132840;28;19907;-73
2021/10/29 00:18:57;;;;;;;;;;;;;;;;;;5135524;28;19915;-73
2021/10/29 00:21:22;;;;;;;;;;;;;;;;;;5136508;27;19896;-73
2021/10/29 00:23:48;;;;;;;;;;;;;;;;;;5151513;27;19976;-73
2021/10/29 00:26:13;;;;;;;;;;;;;;;;;;5134145;28;19951;-73
2021/10/29 00:28:38;;;;;;;;;;;;;;;;;;5134202;28;19918;-73
2021/10/29 00:31:03;;;;;;;;;;;;;;;;;;5136079;28;19908;-73
2021/10/29 00:33:28;;;;;;;;;;;;;;;;;;5127212;28;19937;-73
2021/10/29 00:35:54;;;;;;;;;;;;;;;;;;5133497;28;19925;-73
2021/10/29 00:38:19;;;;;;;;;;;;;;;;;;5126263;28;19934;-74
2021/10/29 00:40:45;;;;;;;;;;;;;;;;;;5136788;28;19908;-73
2021/10/29 00:43:10;;;;;;;;;;;;;;;;;;5135544;28;19966;-73
2021/10/29 00:45:35;;;;;;;;;;;;;;;;;;5134292;28;19914;-73
2021/10/29 00:48:00;;;;;;;;;;;;;;;;;;5135178;28;19907;-74
2021/10/29 00:50:25;;;;;;;;;;;;;;;;;;5135565;28;19900;-74
2021/10/29 00:52:51;;;;;;;;;;;;;;;;;;5136606;28;19914;-73
2021/10/29 00:55:16;;;;;;;;;;;;;;;;;;5135501;28;19900;-73
2021/10/29 00:57:41;;;;;;;;;;;;;;;;;;5136149;28;19911;-74
2021/10/29 01:00:06;;;;;;;;;;;;;;;;;;5135358;28;19939;-73
2021/10/29 01:02:31;;;;;;;;;;;;;;;;;;5135006;28;19900;-73
2021/10/29 01:04:58;;;;;;;;;;;;;;;;;;5135436;28;19904;-73
2021/10/29 01:07:23;;;;;;;;;;;;;;;;;;5134980;28;19907;-73
2021/10/29 01:09:48;;;;;;;;;;;;;;;;;;5136006;28;19915;-74
2021/10/29 01:12:14;;;;;;;;;;;;;;;;;;5134370;27;19899;-73
2021/10/29 01:14:39;;;;;;;;;;;;;;;;;;5136131;28;19994;-74
2021/10/29 01:17:04;;;;;;;;;;;;;;;;;;5135383;28;19900;-73
2021/10/29 01:19:29;;;;;;;;;;;;;;;;;;5136053;28;19900;-74
2021/10/29 01:21:55;;;;;;;;;;;;;;;;;;5135855;28;19900;-74
2021/10/29 01:24:21;;;;;;;;;;;;;;;;;;5135820;28;19900;-74
2021/10/29 01:26:46;;;;;;;;;;;;;;;;;;5134629;28;20038;-74
2021/10/29 01:29:11;;;;;;;;;;;;;;;;;;5135128;28;19908;-74
2021/10/29 01:31:37;;;;;;;;;;;;;;;;;;5134490;28;19929;-74
2021/10/29 01:34:02;;;;;;;;;;;;;;;;;;5134318;28;20197;-74
2021/10/29 01:36:27;;;;;;;;;;;;;;;;;;5133842;28;19908;-74
2021/10/29 01:38:52;;;;;;;;;;;;;;;;;;5133992;28;19907;-74
2021/10/29 01:41:18;;;;;;;;;;;;;;;;;;5134262;28;19900;-74
2021/10/29 01:43:43;;;;;;;;;;;;;;;;;;5132971;28;19922;-74
2021/10/29 01:46:08;;;;;;;;;;;;;;;;;;5149349;27;19912;-73
2021/10/29 01:48:33;;;;;;;;;;;;;;;;;;5134239;28;19907;-73
2021/10/29 01:50:59;;;;;;;;;;;;;;;;;;5134633;28;19907;-74
2021/10/29 01:53:24;;;;;;;;;;;;;;;;;;5132995;28;19915;-74
2021/10/29 01:55:49;;;;;;;;;;;;;;;;;;5134589;28;19916;-74
2021/10/29 01:58:15;;;;;;;;;;;;;;;;;;5133894;28;19907;-74
2021/10/29 02:00:41;;;;;;;;;;;;;;;;;;5132548;28;19911;-74
2021/10/29 02:03:06;;;;;;;;;;;;;;;;;;5134251;28;20201;-74
2021/10/29 02:05:31;;;;;;;;;;;;;;;;;;5134816;28;19907;-74
2021/10/29 02:07:56;;;;;;;;;;;;;;;;;;5134218;28;19900;-74
2021/10/29 02:10:24;;;;;;;;;;;;;;;;;;5134565;28;19919;-74
2021/10/29 02:12:50;;;;;;;;;;;;;;;;;;5133503;28;19988;-74
2021/10/29 02:15:15;;;;;;;;;;;;;;;;;;5135176;28;19903;-74
2021/10/29 02:17:41;;;;;;;;;;;;;;;;;;5135271;28;19985;-74
2021/10/29 02:20:06;;;;;;;;;;;;;;;;;;5134961;28;19896;-74
2021/10/29 02:22:31;;;;;;;;;;;;;;;;;;5134279;28;19934;-75
2021/10/29 02:24:57;;;;;;;;;;;;;;;;;;5146649;27;19915;-75
2021/10/29 02:27:22;;;;;;;;;;;;;;;;;;5134696;28;19919;-74
2021/10/29 02:29:47;;;;;;;;;;;;;;;;;;5149949;27;19903;-74
2021/10/29 02:32:12;;;;;;;;;;;;;;;;;;5133128;28;19896;-74
2021/10/29 02:34:38;;;;;;;;;;;;;;;;;;5134025;28;19900;-75
2021/10/29 02:37:03;;;;;;;;;;;;;;;;;;5134848;28;19903;-75
2021/10/29 02:39:28;;;;;;;;;;;;;;;;;;5134991;28;19900;-75
2021/10/29 02:41:53;;;;;;;;;;;;;;;;;;5134571;28;19896;-75
2021/10/29 02:44:19;;;;;;;;;;;;;;;;;;5134031;28;19900;-75
2021/10/29 02:46:44;;;;;;;;;;;;;;;;;;5133029;28;19908;-75
2021/10/29 02:49:09;;;;;;;;;;;;;;;;;;5133645;28;19904;-74
2021/10/29 02:51:34;;;;;;;;;;;;;;;;;;5114687;28;19907;-75
2021/10/29 02:54:00;;;;;;;;;;;;;;;;;;5114652;28;19937;-74
2021/10/29 02:56:25;;;;;;;;;;;;;;;;;;5134344;28;19904;-75
2021/10/29 02:58:50;;;;;;;;;;;;;;;;;;5134325;28;19904;-75
2021/10/29 03:01:15;;;;;;;;;;;;;;;;;;5134395;28;19900;-76
2021/10/29 03:03:41;;;;;;;;;;;;;;;;;;5134472;28;19959;-74
2021/10/29 03:06:06;;;;;;;;;;;;;;;;;;5134308;28;19916;-75
2021/10/29 03:08:31;;;;;;;;;;;;;;;;;;5134684;28;19915;-73
2021/10/29 03:10:56;;;;;;;;;;;;;;;;;;5133462;28;19896;-73
2021/10/29 03:13:22;;;;;;;;;;;;;;;;;;5133255;28;19907;-74
2021/10/29 03:15:49;;;;;;;;;;;;;;;;;;5133252;28;19923;-74
2021/10/29 03:18:14;;;;;;;;;;;;;;;;;;5146044;27;19936;-74
2021/10/29 03:20:39;;;;;;;;;;;;;;;;;;5133004;28;19908;-74
2021/10/29 03:23:04;;;;;;;;;;;;;;;;;;5133577;28;19900;-74
2021/10/29 03:25:30;;;;;;;;;;;;;;;;;;5135356;28;19915;-74
2021/10/29 03:27:55;;;;;;;;;;;;;;;;;;5128462;28;19923;-73
2021/10/29 03:30:20;;;;;;;;;;;;;;;;;;5135791;28;19907;-74
2021/10/29 03:32:46;;;;;;;;;;;;;;;;;;5137447;28;19904;-74
2021/10/29 03:35:11;;;;;;;;;;;;;;;;;;5136284;28;19925;-74
2021/10/29 03:43:02;;;;;;;;;;;;;;;;;;5137307;28;19911;-75
2021/10/29 03:45:27;;;;;;;;;;;;;;;;;;5136184;28;20244;-75
2021/10/29 03:47:59;;;;;;;;;;;;;;;;;;5136001;28;19914;-75
2021/10/29 03:50:30;;;;;;;;;;;;;;;;;;5136453;28;19934;-75
2021/10/29 03:55:32;;;;;;;;;;;;;;;;;;5137112;28;19900;-74
2021/10/29 03:57:58;;;;;;;;;;;;;;;;;;5135580;28;20000;-75
2021/10/29 04:00:28;;;;;;;;;;;;;;;;;;5136291;28;19927;-75
2021/10/29 04:02:53;;;;;;;;;;;;;;;;;;5134804;28;19899;-75
2021/10/29 04:05:19;;;;;;;;;;;;;;;;;;5135388;28;19967;-74
2021/10/29 04:07:44;;;;;;;;;;;;;;;;;;5136167;28;19967;-75
2021/10/29 04:10:09;;;;;;;;;;;;;;;;;;5135902;28;20387;-75
2021/10/29 04:12:34;;;;;;;;;;;;;;;;;;5136224;28;19970;-74
2021/10/29 04:15:00;;;;;;;;;;;;;;;;;;5136422;28;19971;-75
2021/10/29 04:17:25;;;;;;;;;;;;;;;;;;5136579;28;19896;-75
2021/10/29 04:19:50;;;;;;;;;;;;;;;;;;5137314;28;19931;-75
2021/10/29 04:22:15;;;;;;;;;;;;;;;;;;5137352;28;19903;-75
2021/10/29 04:24:40;;;;;;;;;;;;;;;;;;5135903;28;19918;-75
2021/10/29 04:27:06;;;;;;;;;;;;;;;;;;5136572;28;19926;-74
2021/10/29 04:29:36;;;;;;;;;;;;;;;;;;5136769;28;20095;-75
2021/10/29 04:32:01;;;;;;;;;;;;;;;;;;5135761;28;19997;-75
2021/10/29 04:34:26;;;;;;;;;;;;;;;;;;5135394;28;19908;-75
2021/10/29 04:36:52;;;;;;;;;;;;;;;;;;5135479;28;19911;-75
2021/10/29 04:39:17;;;;;;;;;;;;;;;;;;5137042;28;19955;-75
2021/10/29 04:41:42;;;;;;;;;;;;;;;;;;5137237;28;19929;-75
2021/10/29 04:44:07;;;;;;;;;;;;;;;;;;5135538;28;19911;-75
2021/10/29 04:46:33;;;;;;;;;;;;;;;;;;5135562;28;19977;-75
2021/10/29 04:48:58;;;;;;;;;;;;;;;;;;5136124;28;19907;-75
2021/10/29 04:51:23;;;;;;;;;;;;;;;;;;5134531;28;20040;-75
2021/10/29 04:53:48;;;;;;;;;;;;;;;;;;5136789;28;19900;-75
2021/10/29 04:56:13;;;;;;;;;;;;;;;;;;5126521;28;19900;-74
2021/10/29 04:58:39;;;;;;;;;;;;;;;;;;5135411;28;19928;-75
2021/10/29 05:01:04;;;;;;;;;;;;;;;;;;5135110;28;19911;-74
2021/10/29 05:03:29;;;;;;;;;;;;;;;;;;5135854;28;19915;-75
2021/10/29 05:05:55;;;;;;;;;;;;;;;;;;5133716;28;19939;-75
2021/10/29 05:08:20;;;;;;;;;;;;;;;;;;5134423;28;19934;-75
2021/10/29 05:10:45;;;;;;;;;;;;;;;;;;5135935;28;19896;-73
2021/10/29 05:13:11;;;;;;;;;;;;;;;;;;5134936;28;19918;-73
2021/10/29 05:15:37;;;;;;;;;;;;;;;;;;5134960;28;19933;-73
2021/10/29 05:18:02;;;;;;;;;;;;;;;;;;5137626;27;20108;-73
2021/10/29 05:20:27;;;;;;;;;;;;;;;;;;5134433;28;19899;-73
2021/10/29 05:22:53;;;;;;;;;;;;;;;;;;5135548;28;19904;-74
2021/10/29 05:25:18;;;;;;;;;;;;;;;;;;5135108;28;19903;-73
2021/10/29 05:27:43;;;;;;;;;;;;;;;;;;5134189;28;20120;-74
2021/10/29 05:30:08;;;;;;;;;;;;;;;;;;5129282;28;19911;-73
2021/10/29 05:32:34;;;;;;;;;;;;;;;;;;5122997;28;19907;-73
2021/10/29 05:35:00;;;;;;;;;;;;;;;;;;5134047;28;20149;-73
2021/10/29 05:37:25;;;;;;;;;;;;;;;;;;5134954;28;19980;-73
2021/10/29 05:39:51;;;;;;;;;;;;;;;;;;5135812;28;19900;-73
2021/10/29 05:42:16;;;;;;;;;;;;;;;;;;5133470;28;19895;-73
2021/10/29 05:44:41;;;;;;;;;;;;;;;;;;5134889;28;20210;-73
2021/10/29 05:47:06;;;;;;;;;;;;;;;;;;5129827;28;19904;-74
2021/10/29 05:49:32;;;;;;;;;;;;;;;;;;5133535;28;19987;-74
2021/10/29 05:51:57;;;;;;;;;;;;;;;;;;5134262;28;19967;-74
2021/10/29 05:54:40;;;;;;;;;;;;;;;;;;5133100;28;19911;-74
2021/10/29 05:57:05;;;;;;;;;;;;;;;;;;5133428;28;19899;-74
2021/10/29 05:59:33;;;;;;;;;;;;;;;;;;5134513;28;19918;-74
2021/10/29 06:01:59;;;;;;;;;;;;;;;;;;5133855;28;19899;-74
2021/10/29 06:04:24;;;;;;;;;;;;;;;;;;5132681;28;19943;-74
2021/10/29 06:06:55;;;;;;;;;;;;;;;;;;5133476;28;20468;-73
2021/10/29 06:09:20;;;;;;;;;;;;;;;;;;5133619;28;19903;-73
2021/10/29 06:11:45;;;;;;;;;;;;;;;;;;5121138;28;19919;-73
2021/10/29 06:14:10;;;;;;;;;;;;;;;;;;5120368;28;19903;-73
2021/10/29 06:16:36;;;;;;;;;;;;;;;;;;5132040;28;19907;-73
2021/10/29 06:19:01;;;;;;;;;;;;;;;;;;5132042;28;19967;-73
2021/10/29 06:21:42;;;;;;;;;;;;;;;;;;5130634;28;19900;-73
2021/10/29 06:24:11;;;;;;;;;;;;;;;;;;5130868;28;19904;-73
2021/10/29 06:26:51;;;;;;;;;;;;;;;;;;5131769;28;19912;-74
2021/10/29 06:29:16;;;;;;;;;;;;;;;;;;5128301;28;19908;-73
2021/10/29 06:31:41;;;;;;;;;;;;;;;;;;5129389;28;19932;-74
2021/10/29 06:34:06;;;;;;;;;;;;;;;;;;5131755;28;19911;-73
2021/10/29 06:36:32;;;;;;;;;;;;;;;;;;5132603;28;19908;-73
2021/10/29 06:38:59;;;;;;;;;;;;;;;;;;5130405;28;19927;-73
2021/10/29 06:41:24;;;;;;;;;;;;;;;;;;5125937;28;19903;-74
2021/10/29 06:44:04;;;;;;;;;;;;;;;;;;5130759;28;19979;-73
2021/10/29 06:59:56;;;;;;;;;;;;;;;;;;5132655;27;19915;-73
2021/10/29 07:40:33;;;;;;;;;;;;;;;;;;5134213;28;19911;-74
2021/10/29 07:43:04;;;;;;;;;;;;;;;;;;5135577;28;19980;-73
2021/10/29 07:45:29;;;;;;;;;;;;;;;;;;5135566;28;19912;-73
2021/10/29 07:47:54;;;;;;;;;;;;;;;;;;5124393;27;19942;-73
2021/10/29 07:50:19;;;;;;;;;;;;;;;;;;5128752;27;19911;-74
2021/10/29 07:52:45;;;;;;;;;;;;;;;;;;5128859;27;19908;-73
2021/10/29 07:55:10;;;;;;;;;;;;;;;;;;5128403;27;19916;-73
2021/10/29 07:57:35;;;;;;;;;;;;;;;;;;5129028;27;19959;-73
2021/10/29 08:00:03;;;;;;;;;;;;;;;;;;5128591;27;19915;-73
2021/10/29 08:02:31;;;;;;;;;;;;;;;;;;5129686;27;20102;-73
2021/10/29 08:04:56;;;;;;;;;;;;;;;;;;5127281;27;19903;-74
2021/10/29 08:07:21;;;;;;;;;;;;;;;;;;5125930;27;20141;-74
2021/10/29 08:09:46;;;;;;;;;;;;;;;;;;5129474;27;19903;-73
2021/10/29 08:12:12;;;;;;;;;;;;;;;;;;5127095;27;19939;-73
2021/10/29 08:14:37;;;;;;;;;;;;;;;;;;5128694;27;19896;-73
2021/10/29 08:17:03;;;;;;;;;;;;;;;;;;5124829;27;19900;-73
2021/10/29 08:19:32;;;;;;;;;;;;;;;;;;5128015;27;19906;-73
2021/10/29 08:21:57;;;;;;;;;;;;;;;;;;5126957;27;19981;-73
2021/10/29 08:24:23;;;;;;;;;;;;;;;;;;5127488;27;19899;-73
2021/10/29 08:26:48;;;;;;;;;;;;;;;;;;5127663;27;20104;-73
2021/10/29 08:29:13;;;;;;;;;;;;;;;;;;5110972;28;19896;-73
2021/10/29 08:31:38;;;;;;;;;;;;;;;;;;5127812;27;20103;-74
2021/10/29 08:34:03;;;;;;;;;;;;;;;;;;5127023;27;19921;-73
2021/10/29 08:36:29;;;;;;;;;;;;;;;;;;5127677;27;19944;-73
2021/10/29 08:38:54;;;;;;;;;;;;;;;;;;5127853;27;19903;-73
2021/10/29 08:41:20;;;;;;;;;;;;;;;;;;5126991;27;19908;-73
2021/10/29 08:43:45;;;;;;;;;;;;;;;;;;5127856;27;19899;-76
2021/10/29 08:46:11;;;;;;;;;;;;;;;;;;5126928;27;19922;-73
2021/10/29 08:48:37;;;;;;;;;;;;;;;;;;5126737;27;19899;-73
2021/10/29 08:51:02;;;;;;;;;;;;;;;;;;5116969;27;19931;-73
2021/10/29 08:53:27;;;;;;;;;;;;;;;;;;5129464;27;19904;-73
2021/10/29 08:55:52;;;;;;;;;;;;;;;;;;5126097;27;19900;-73
2021/10/29 08:58:19;;;;;;;;;;;;;;;;;;5124166;28;19900;-73
2021/10/29 09:00:45;;;;;;;;;;;;;;;;;;5123041;27;19970;-73
2021/10/29 09:03:17;;;;;;;;;;;;;;;;;;5125820;27;19939;-76
2021/10/29 09:11:00;;;;;;;;;;;;;;;;;;5126149;28;20251;-73
2021/10/29 09:32:16;;;;;;;;;;;;;;;;;;5125622;27;19904;-73
2021/10/29 09:34:41;;;;;;;;;;;;;;;;;;5123144;27;19946;-73
2021/10/29 09:37:07;;;;;;;;;;;;;;;;;;5126312;28;19904;-73
2021/10/29 09:39:43;;;;;;;;;;;;;;;;;;5118513;27;20027;-73
2021/10/29 09:42:17;;;;;;;;;;;;;;;;;;5123138;27;19957;-73
2021/10/29 09:44:43;;;;;;;;;;;;;;;;;;5125805;27;19911;-73
2021/10/29 09:47:09;;;;;;;;;;;;;;;;;;5125645;28;20268;-73
2021/10/29 09:49:50;;;;;;;;;;;;;;;;;;5124465;27;19896;-73
2021/10/29 09:54:46;;;;;;;;;;;;;;;;;;5125388;27;19947;-73
2021/10/29 09:57:11;;;;;;;;;;;;;;;;;;5119921;27;20303;-72
2021/10/29 09:59:37;;;;;;;;;;;;;;;;;;5124788;27;19899;-73
2021/10/29 10:02:02;;;;;;;;;;;;;;;;;;5120063;27;20132;-73
2021/10/29 10:04:28;;;;;;;;;;;;;;;;;;5124034;27;20237;-73
2021/10/29 10:06:53;;;;;;;;;;;;;;;;;;5124783;27;19919;-73
2021/10/29 10:09:18;;;;;;;;;;;;;;;;;;5122826;28;20187;-73
2021/10/29 10:11:44;;;;;;;;;;;;;;;;;;5124800;27;19903;-73
2021/10/29 10:14:10;;;;;;;;;;;;;;;;;;5125073;28;19908;-73
2021/10/29 10:16:35;;;;;;;;;;;;;;;;;;5123530;28;20035;-73
2021/10/29 10:19:00;;;;;;;;;;;;;;;;;;5127001;27;19910;-73
2021/10/29 10:21:28;;;;;;;;;;;;;;;;;;5126008;28;19960;-73
2021/10/29 10:23:54;;;;;;;;;;;;;;;;;;5124021;28;19911;-73
2021/10/29 10:26:45;;;;;;;;;;;;;;;;;;5125622;27;19907;-73
2021/10/29 10:29:23;;;;;;;;;;;;;;;;;;5123153;28;19907;-73
2021/10/29 10:42:34;;;;;;;;;;;;;;;;;;5130293;27;19931;-71
2021/10/29 10:45:06;;;;;;;;;;;;;;;;;;5131162;28;19900;-71
2021/10/29 10:47:31;;;;;;;;;;;;;;;;;;5130130;27;19919;-72
2021/10/29 10:49:57;;;;;;;;;;;;;;;;;;5131581;28;19900;-71
2021/10/29 10:52:27;;;;;;;;;;;;;;;;;;5113862;28;19959;-72
2021/10/29 11:00:27;;;;;;;;;;;;;;;;;;5131834;28;19957;-72
2021/10/29 11:10:35;;;;;;;;;;;;;;;;;;5129514;28;19904;-72
2021/10/29 11:13:01;;;;;;;;;;;;;;;;;;5130674;28;19911;-70
2021/10/29 11:15:26;;;;;;;;;;;;;;;;;;5128708;27;19899;-70
2021/10/29 11:17:53;;;;;;;;;;;;;;;;;;5130724;28;19904;-70
2021/10/29 11:20:19;;;;;;;;;;;;;;;;;;5131314;28;19900;-72
2021/10/29 11:22:44;;;;;;;;;;;;;;;;;;5124195;27;19987;-72
2021/10/29 11:25:10;;;;;;;;;;;;;;;;;;5128417;27;19989;-72
2021/10/29 11:27:39;;;;;;;;;;;;;;;;;;5129073;27;19916;-71
2021/10/29 11:30:04;;;;;;;;;;;;;;;;;;5124972;27;20172;-71
2021/10/29 11:32:29;;;;;;;;;;;;;;;;;;5126378;27;19935;-71
2021/10/29 11:34:58;;;;;;;;;;;;;;;;;;5127759;27;19923;-71
2021/10/29 11:37:23;;;;;;;;;;;;;;;;;;5128292;27;19935;-71
2021/10/29 11:39:48;;;;;;;;;;;;;;;;;;5145622;27;19900;-71
2021/10/29 11:42:13;;;;;;;;;;;;;;;;;;5128292;27;19904;-70
2021/10/29 11:44:39;;;;;;;;;;;;;;;;;;5126680;27;19956;-71
2021/10/29 11:47:04;;;;;;;;;;;;;;;;;;5124383;28;19971;-71
2021/10/29 11:49:29;;;;;;;;;;;;;;;;;;5127617;27;20208;-71
2021/10/29 11:51:55;;;;;;;;;;;;;;;;;;5128579;27;19922;-71
2021/10/29 11:54:28;;;;;;;;;;;;;;;;;;5129631;27;19903;-70
2021/10/29 12:07:23;;;;;;;;;;;;;;;;;;5127050;27;19919;-70
2021/10/29 12:09:48;;;;;;;;;;;;;;;;;;5127824;27;19935;-70
2021/10/29 12:12:17;;;;;;;;;;;;;;;;;;5127231;27;19921;-71
2021/10/29 12:14:45;;;;;;;;;;;;;;;;;;5126357;27;19963;-71
2021/10/29 12:17:12;;;;;;;;;;;;;;;;;;5125997;27;19916;-70
2021/10/29 12:19:39;;;;;;;;;;;;;;;;;;5131002;27;19900;-70
2021/10/29 12:22:49;;;;;;;;;;;;;;;;;;5126694;27;19960;-70
2021/10/29 12:24:57;;;;;;;;;;;;;;;;;;5115411;27;19920;-70
2021/10/29 12:27:25;;;;;;;;;;;;;;;;;;5126323;27;20003;-70
2021/10/29 12:29:50;;;;;;;;;;;;;;;;;;5127723;27;19911;-70
2021/10/29 13:01:42;;;;;;;;;;;;;;;;;;5127284;27;19993;-70
2021/10/29 13:04:08;;;;;;;;;;;;;;;;;;5126174;28;19929;-70
2021/10/29 13:06:34;;;;;;;;;;;;;;;;;;5126916;28;19900;-71
2021/10/29 13:08:59;;;;;;;;;;;;;;;;;;5126070;27;19932;-70
2021/10/29 13:11:25;;;;;;;;;;;;;;;;;;5131080;27;19908;-70
2021/10/29 13:14:00;;;;;;;;;;;;;;;;;;5133996;28;19955;-70
2021/10/29 13:16:26;;;;;;;;;;;;;;;;;;5131741;27;19984;-70
2021/10/29 13:51:11;;;;;;;;;;;;;;;;;;5126447;28;19900;-73
2021/10/29 13:56:11;;;;;;;;;;;;;;;;;;5130492;28;19942;-73
2021/10/29 13:58:57;;;;;;;;;;;;;;;;;;5121973;28;19908;-73
2021/10/29 14:31:36;;;;;;;;;;;;;;;;;;5128601;28;19899;-72
2021/10/29 14:34:09;;;;;;;;;;;;;;;;;;5127666;28;19919;-73
2021/10/29 14:36:44;;;;;;;;;;;;;;;;;;5132297;28;19933;-73
2021/10/29 14:39:18;;;;;;;;;;;;;;;;;;5129528;28;19910;-73
2021/10/29 14:41:55;;;;;;;;;;;;;;;;;;5127366;28;19922;-72
2021/10/29 14:44:25;;;;;;;;;;;;;;;;;;5133345;28;20041;-73
2021/10/29 14:49:53;;;;;;;;;;;;;;;;;;5132754;28;19922;-73
2021/10/29 15:45:38;;;;;;;;;;;;;;;;;;5136192;28;19908;-72
2021/10/29 15:48:14;;;;;;;;;;;;;;;;;;5131386;28;19910;-72
2021/10/29 15:50:39;;;;;;;;;;;;;;;;;;5129553;28;20272;-72
2021/10/29 15:53:04;;;;;;;;;;;;;;;;;;5135917;28;19900;-72
2021/10/29 15:55:43;;;;;;;;;;;;;;;;;;5127816;28;19905;-72
2021/10/29 16:01:08;;;;;;;;;;;;;;;;;;5122687;28;19912;-71
2021/10/29 16:03:44;;;;;;;;;;;;;;;;;;5131144;28;20009;-71
2021/10/29 16:19:34;;;;;;;;;;;;;;;;;;5128813;28;19904;-72
2021/10/29 16:22:02;;;;;;;;;;;;;;;;;;5112477;27;19952;-72
2021/10/29 16:24:27;;;;;;;;;;;;;;;;;;5099496;28;20001;-73
2021/10/29 16:26:54;;;;;;;;;;;;;;;;;;5098110;28;19916;-72
2021/10/29 16:29:23;;;;;;;;;;;;;;;;;;5104503;28;19900;-72
2021/10/29 16:31:48;;;;;;;;;;;;;;;;;;5104369;28;19908;-73
2021/10/29 16:34:13;;;;;;;;;;;;;;;;;;5111244;28;19907;-73
2021/10/29 16:36:39;;;;;;;;;;;;;;;;;;5097495;28;19908;-73
2021/10/29 16:39:05;;;;;;;;;;;;;;;;;;5096080;28;19969;-72
2021/10/29 16:41:30;;;;;;;;;;;;;;;;;;5102942;28;19968;-71
2021/10/29 16:43:55;;;;;;;;;;;;;;;;;;5098738;28;19900;-72
2021/10/29 16:46:20;;;;;;;;;;;;;;;;;;5102949;28;19908;-72
2021/10/29 16:48:46;;;;;;;;;;;;;;;;;;5095160;28;19896;-72
2021/10/29 16:51:14;;;;;;;;;;;;;;;;;;5099073;28;20336;-71
2021/10/29 16:53:39;;;;;;;;;;;;;;;;;;5101781;28;19901;-72
2021/10/29 16:56:05;;;;;;;;;;;;;;;;;;5098029;28;20037;-72
2021/10/29 16:58:30;;;;;;;;;;;;;;;;;;5101996;28;19960;-72
2021/10/29 17:00:55;;;;;;;;;;;;;;;;;;5098790;28;19907;-72
2021/10/29 17:03:20;;;;;;;;;;;;;;;;;;5100552;28;20006;-73
2021/10/29 17:05:45;;;;;;;;;;;;;;;;;;5102548;28;19977;-72
2021/10/29 17:08:12;;;;;;;;;;;;;;;;;;5100057;28;19908;-72
2021/10/29 17:10:38;;;;;;;;;;;;;;;;;;5104432;28;19943;-72
2021/10/29 17:13:03;;;;;;;;;;;;;;;;;;5095902;28;19896;-72
2021/10/29 17:15:29;;;;;;;;;;;;;;;;;;5099376;28;20094;-73
2021/10/29 17:17:55;;;;;;;;;;;;;;;;;;5105013;28;19903;-72
2021/10/29 17:20:20;;;;;;;;;;;;;;;;;;5097747;28;19900;-73
2021/10/29 17:22:46;;;;;;;;;;;;;;;;;;5103668;28;19907;-73
2021/10/29 17:25:11;;;;;;;;;;;;;;;;;;5096879;28;19958;-73
2021/10/29 17:27:36;;;;;;;;;;;;;;;;;;5094716;28;19900;-72
2021/10/29 17:30:01;;;;;;;;;;;;;;;;;;5100926;28;19936;-73
2021/10/29 17:32:27;;;;;;;;;;;;;;;;;;5096366;28;19901;-73
2021/10/29 17:34:52;;;;;;;;;;;;;;;;;;5104358;28;19919;-73
2021/10/29 17:37:17;;;;;;;;;;;;;;;;;;5097649;28;19930;-73
2021/10/29 17:39:44;;;;;;;;;;;;;;;;;;5097695;28;20145;-74
2021/10/29 17:42:11;;;;;;;;;;;;;;;;;;5104965;28;19900;-72
2021/10/29 17:44:37;;;;;;;;;;;;;;;;;;5097639;28;19924;-73
2021/10/29 17:47:02;;;;;;;;;;;;;;;;;;5103652;28;19920;-72
2021/10/29 17:49:28;;;;;;;;;;;;;;;;;;5097193;28;19901;-72
2021/10/29 17:51:55;;;;;;;;;;;;;;;;;;5098137;28;19900;-72
2021/10/29 17:54:21;;;;;;;;;;;;;;;;;;5101687;28;19908;-73
2021/10/29 17:56:46;;;;;;;;;;;;;;;;;;5096614;28;19908;-73
2021/10/29 17:59:11;;;;;;;;;;;;;;;;;;5101181;28;19953;-73
2021/10/29 18:01:37;;;;;;;;;;;;;;;;;;5098039;28;19912;-72
2021/10/29 18:04:02;;;;;;;;;;;;;;;;;;5098797;28;19927;-72
2021/10/29 18:06:27;;;;;;;;;;;;;;;;;;5101945;28;20003;-73
2021/10/29 18:09:04;;;;;;;;;;;;;;;;;;5098104;28;19923;-72
2021/10/29 18:11:29;;;;;;;;;;;;;;;;;;5099320;28;19967;-72
2021/10/29 18:13:54;;;;;;;;;;;;;;;;;;5097716;28;19912;-73
2021/10/29 18:16:20;;;;;;;;;;;;;;;;;;5086598;28;20221;-72
2021/10/29 18:18:45;;;;;;;;;;;;;;;;;;5102184;28;19963;-72
2021/10/29 18:21:10;;;;;;;;;;;;;;;;;;5098793;28;19904;-72
2021/10/29 18:23:36;;;;;;;;;;;;;;;;;;5099845;28;19932;-73
2021/10/29 18:26:01;;;;;;;;;;;;;;;;;;5096962;28;19911;-73
2021/10/29 18:28:26;;;;;;;;;;;;;;;;;;5096632;28;19900;-73
2021/10/29 18:30:52;;;;;;;;;;;;;;;;;;5103258;28;19900;-73
2021/10/29 18:33:17;;;;;;;;;;;;;;;;;;5096427;28;19912;-72
2021/10/29 18:35:42;;;;;;;;;;;;;;;;;;5102323;28;19931;-73
2021/10/29 18:38:07;;;;;;;;;;;;;;;;;;5094723;28;19900;-72
2021/10/29 18:40:33;;;;;;;;;;;;;;;;;;5097117;28;19930;-73
2021/10/29 18:42:58;;;;;;;;;;;;;;;;;;5103714;28;19910;-74
2021/10/29 18:45:24;;;;;;;;;;;;;;;;;;5094816;28;20021;-73
2021/10/29 18:47:49;;;;;;;;;;;;;;;;;;5102008;28;19900;-73
2021/10/29 18:50:14;;;;;;;;;;;;;;;;;;5101140;28;19993;-73
2021/10/29 18:52:40;;;;;;;;;;;;;;;;;;5098673;28;20186;-73
2021/10/29 18:55:05;;;;;;;;;;;;;;;;;;5102630;28;19928;-73
2021/10/29 18:57:30;;;;;;;;;;;;;;;;;;5102175;28;19971;-73
2021/10/29 18:59:56;;;;;;;;;;;;;;;;;;5111593;28;19909;-73
2021/10/29 19:02:22;;;;;;;;;;;;;;;;;;5105548;28;20080;-73
2021/10/29 19:04:47;;;;;;;;;;;;;;;;;;5099637;28;19975;-72
2021/10/29 19:07:13;;;;;;;;;;;;;;;;;;5108381;28;19923;-72
2021/10/29 19:09:39;;;;;;;;;;;;;;;;;;5099995;28;19915;-72
2021/10/29 19:12:05;;;;;;;;;;;;;;;;;;5099078;28;19911;-72
2021/10/29 19:14:32;;;;;;;;;;;;;;;;;;5106989;28;19912;-72
2021/10/29 19:16:58;;;;;;;;;;;;;;;;;;5099387;28;19968;-73
2021/10/29 19:19:23;;;;;;;;;;;;;;;;;;5106089;28;19900;-73
2021/10/29 19:21:48;;;;;;;;;;;;;;;;;;5100566;28;19960;-73
2021/10/29 19:24:13;;;;;;;;;;;;;;;;;;5101294;28;19905;-73
2021/10/29 19:26:39;;;;;;;;;;;;;;;;;;5104963;28;19927;-73
2021/10/29 19:29:04;;;;;;;;;;;;;;;;;;5100949;28;19911;-74
2021/10/29 19:31:30;;;;;;;;;;;;;;;;;;5107010;28;19908;-73
2021/10/29 19:33:56;;;;;;;;;;;;;;;;;;5102123;28;19908;-73
2021/10/29 19:36:30;;;;;;;;;;;;;;;;;;5103958;28;19916;-72
2021/10/29 19:41:40;;;;;;;;;;;;;;;;;;5082293;28;19967;-73
2021/10/29 19:44:06;;;;;;;;;;;;;;;;;;5112345;28;19901;-73
2021/10/29 19:46:31;;;;;;;;;;;;;;;;;;5105853;28;19919;-73
2021/10/29 19:48:56;;;;;;;;;;;;;;;;;;5098410;28;19930;-73
2021/10/29 19:51:22;;;;;;;;;;;;;;;;;;5106110;28;19918;-72
2021/10/29 19:53:47;;;;;;;;;;;;;;;;;;5098403;28;19968;-72
2021/10/29 19:56:13;;;;;;;;;;;;;;;;;;5105607;28;19917;-71
2021/10/29 19:58:38;;;;;;;;;;;;;;;;;;5098273;28;20195;-71
2021/10/29 20:01:03;;;;;;;;;;;;;;;;;;5098954;28;19901;-72
2021/10/29 20:03:29;;;;;;;;;;;;;;;;;;5104749;28;19959;-71
2021/10/29 20:05:55;;;;;;;;;;;;;;;;;;5098440;28;19980;-72
2021/10/29 20:08:20;;;;;;;;;;;;;;;;;;5103060;28;19909;-72
2021/10/29 20:10:45;;;;;;;;;;;;;;;;;;5096905;28;19934;-73
2021/10/29 20:13:10;;;;;;;;;;;;;;;;;;5088489;28;19915;-73
2021/10/29 20:15:36;;;;;;;;;;;;;;;;;;5106944;28;19911;-73
2021/10/29 20:18:03;;;;;;;;;;;;;;;;;;5099112;28;19922;-73
2021/10/29 20:20:28;;;;;;;;;;;;;;;;;;5106291;28;19920;-73
2021/10/29 20:22:53;;;;;;;;;;;;;;;;;;5097608;28;19915;-73
2021/10/29 20:25:18;;;;;;;;;;;;;;;;;;5105963;28;19926;-73
2021/10/29 20:27:44;;;;;;;;;;;;;;;;;;5103546;28;19908;-73
2021/10/29 20:30:09;;;;;;;;;;;;;;;;;;5097262;28;19901;-73
2021/10/29 20:32:34;;;;;;;;;;;;;;;;;;5104659;28;19964;-73
2021/10/29 20:34:59;;;;;;;;;;;;;;;;;;5099875;28;19919;-73
2021/10/29 20:37:25;;;;;;;;;;;;;;;;;;5096957;28;19960;-72
2021/10/29 20:39:50;;;;;;;;;;;;;;;;;;5104017;28;19922;-73
2021/10/29 20:42:15;;;;;;;;;;;;;;;;;;5097002;28;20164;-73
2021/10/29 20:44:40;;;;;;;;;;;;;;;;;;5101177;28;19944;-73
2021/10/29 20:47:11;;;;;;;;;;;;;;;;;;5097347;28;19961;-73
2021/10/29 20:49:36;;;;;;;;;;;;;;;;;;5097926;28;19931;-72
2021/10/29 20:52:02;;;;;;;;;;;;;;;;;;5103490;28;19908;-73
2021/10/29 20:54:27;;;;;;;;;;;;;;;;;;5098275;28;20004;-73
2021/10/29 20:56:52;;;;;;;;;;;;;;;;;;5098653;28;19969;-73
2021/10/29 20:59:18;;;;;;;;;;;;;;;;;;5107545;28;19904;-73
2021/10/29 21:01:45;;;;;;;;;;;;;;;;;;5099177;28;19908;-73
2021/10/29 21:04:10;;;;;;;;;;;;;;;;;;5111477;28;19923;-73
2021/10/29 21:06:35;;;;;;;;;;;;;;;;;;5096242;28;19900;-73
2021/10/29 21:09:00;;;;;;;;;;;;;;;;;;5097784;28;19996;-73
2021/10/29 21:11:26;;;;;;;;;;;;;;;;;;5100496;28;19970;-73
2021/10/29 21:13:51;;;;;;;;;;;;;;;;;;5097744;28;19976;-73
2021/10/29 21:16:16;;;;;;;;;;;;;;;;;;5102120;28;19908;-73
2021/10/29 21:18:41;;;;;;;;;;;;;;;;;;5097193;28;19904;-73
2021/10/29 21:21:07;;;;;;;;;;;;;;;;;;5106849;28;19908;-73
2021/10/29 21:23:33;;;;;;;;;;;;;;;;;;5102938;28;19985;-73
2021/10/29 21:25:58;;;;;;;;;;;;;;;;;;5095598;28;19908;-73
2021/10/29 21:28:23;;;;;;;;;;;;;;;;;;5103794;28;19908;-73
2021/10/29 21:30:48;;;;;;;;;;;;;;;;;;5097129;28;19916;-73